x

St Georges - 8nm Nw Of Crescent City, Ca (46027) Wave Buoy

1:50am - Wed 27th Jul 2016 All times are PDT. -7 hours from GMT.

  • Sig Wave height 8.9ft
  • Swell Direction
  • Peak Period 8s
  • Average Period 7s
  • Wind
    2mph, 4mph gusts
  • Sea Temp 51°f
  • Air Temp 53°f
  • Sea Pressure 1013.6mb
  • St Georges - 8nm Nw Of Crescent City, Ca
  • St Georges - 8nm Nw Of Crescent City, Ca

More Historic Weather Station data

Upgrade to MSW Pro to gain access to the past 30 days of data for over 8000 Wavebouys and Weather Stations around the globe.

Join Pro

Comparision Forecast

View Surf forecast
   
Wed 07/27 1:50am 9ft 8s 7s 2 4 mph 1013.6mb 51f 53f
12:50am 8.5ft 8s 7s 7 9 mph 1013.9mb 52f 54f
Tue 07/26 11:50pm 9ft 8s 7s 4 7 mph 1013.8mb 51f 53f
10:50pm 9ft 8s 7s 4 7 mph 1013.9mb 50f 53f
9:50pm 9ft 8s 6s 7 11 mph 1013.1mb 49f 54f
8:50pm 8.5ft 8s 6s 20 25 mph 1012mb 49f 54f
7:50pm 10.5ft 8s 7s 27 31 mph 1011.8mb 50f 55f
6:50pm 11ft 8s 7s 27 31 mph 1011.8mb 50f 55f
5:50pm 10ft 8s 6s 27 31 mph 1012.3mb 50f 55f
4:50pm 10.5ft 7s 6s 29 36 mph 1012.3mb 51f 55f
3:50pm 10ft 8s 7s 27 36 mph 1012.9mb 51f 55f
2:50pm 9ft 8s 6s 27 31 mph 1013.6mb 53f 54f
1:50pm 8ft 8s 6s 20 25 mph 1014.1mb 52f 54f
12:50pm 8ft 7s 6s 20 25 mph 1014.4mb 51f 54f
11:50am 7.5ft 7s 6s 11 13 mph 1015.2mb 53f 54f
10:50am 7.5ft 7s 6s 2 4 mph 1015.6mb 52f 53f
9:50am 7.5ft 7s 6s 4 7 mph 1015.8mb 51f 52f
8:50am 7.5ft 7s 6s 2 4 mph 1016mb 51f 52f
7:50am 7ft 8s 6s 2
mph
1015.9mb 51f 52f
6:50am 6ft 8s 6s 2 4 mph 1016mb 52f 53f
5:50am 7ft 8s 6s 2 4 mph 1015.9mb 53f 52f
4:50am 6ft 8s 6s 7 9 mph 1015.6mb 53f 52f
3:50am 6.5ft 7s 6s 2 4 mph 1016mb 52f 52f
2:50am 6ft 7s 6s 4 7 mph 1015.9mb 52f 52f
1:50am 6ft 8s 6s 4 7 mph 1016.1mb 52f 53f
12:50am 6.5ft 7s 6s 7 9 mph 1016.5mb 51f 52f
Mon 07/25 11:50pm 7ft 7s 6s 2 4 mph 1016.4mb 51f 51f
10:50pm 7ft 7s 6s 4 7 mph 1016.4mb 51f 53f
9:50pm 7.5ft 7s 6s 7 9 mph 1016.3mb 51f 53f
8:50pm 8ft 7s 6s 22 27 mph 1015.4mb 51f 54f
7:50pm 7ft 7s 6s 25 29 mph 1015.1mb 51f 54f
6:50pm 6ft 7s 5s 25 29 mph 1014.9mb 51f 54f
5:50pm 6ft 7s 6s 22 27 mph 1015.2mb 52f 54f
4:50pm 6ft 7s 6s 18 22 mph 1015.5mb 52f 54f
3:50pm 5ft 7s 6s 16 20 mph 1015.9mb 52f 54f
2:50pm 5ft 7s 6s 16 20 mph 1015.8mb 52f 54f
1:50pm 5ft 7s 6s 13 16 mph 1016.2mb 51f 53f
12:50pm 5ft 8s 6s 11 13 mph 1016.7mb 52f 53f
10:50am 4.5ft 7s 6s 7 9 mph 1016.9mb 53f 53f
9:50am 4.5ft 7s 5s 2
mph
1016.9mb 51f 54f
8:50am 4.5ft 7s 6s 4
mph
1016.7mb 52f 53f
7:50am 4.5ft 7s 5s 2
mph
1016.5mb 52f 53f
6:50am 5ft 7s 6s 2
mph
1016.5mb 52f 52f
5:50am 5ft 6s 6s 2 7 mph 1016.6mb 53f 54f
4:50am 5ft 7s 6s 4
mph
1016.4mb 53f 52f
3:50am 5.5ft 7s 6s 2
mph
1016.1mb 53f 52f
2:50am 6ft 7s 6s 4 7 mph 1016.2mb 51f 51f
1:50am 6ft 7s 6s 7 9 mph 1016.2mb 51f 51f
12:50am 6ft 7s 6s 7 9 mph 1015.9mb 51f 53f
Sun 07/24 11:50pm 6ft 7s 6s 11 13 mph 1015.6mb 51f 53f
10:50pm 6ft 7s 6s 11 16 mph 1015.6mb 50f 54f
9:50pm 6.5ft 7s 6s 4 7 mph 1015.2mb 50f 51f
8:50pm 7ft 7s 6s 13 16 mph 1014.4mb 50f 53f
7:50pm 6.5ft 8s 5s 25 29 mph 1013.6mb 50f 54f
6:50pm 6ft 7s 5s 25 29 mph 1013.5mb 51f 54f
5:50pm 7ft 8s 6s 20 27 mph 1013.5mb 51f 54f
4:50pm 7ft 7s 6s 20 25 mph 1013.7mb 51f 54f
3:50pm 7ft 8s 6s 20 22 mph 1013.8mb 51f 54f
2:50pm 6.5ft 7s 6s 18 22 mph 1014mb 51f 53f
1:50pm 6ft 8s 6s 20 22 mph 1014.1mb 51f 53f
12:50pm 7ft 8s 6s 18 20 mph 1014.1mb 52f 53f
11:50am 7ft 7s 6s 4
mph
1014.8mb 52f 52f
10:50am 7ft 8s 6s  -  2 mph 1014.7mb 51f 52f
9:50am 7ft 8s 6s 4 7 mph 1014.9mb 51f 51f
8:50am 7.5ft 8s 6s 7 9 mph 1014.9mb 51f 51f
7:50am 7.5ft 8s 6s 4 7 mph 1014.6mb 51f 51f
6:50am 6.5ft 8s 6s 4 7 mph 1014.5mb 51f 51f
5:50am 6.5ft 8s 6s 4 7 mph 1014.3mb 51f 52f
4:50am 6.5ft 8s 6s 2 4 mph 1014.1mb 51f 51f
3:50am 6.5ft 8s 6s  -  2 mph 1014.2mb 51f 52f
2:50am 6ft 8s 6s  -  2 mph 1014.8mb 50f 52f
1:50am 7.5ft 8s 6s  -  2 mph 1015.1mb 50f 52f
12:50am 8ft 8s 6s 4 7 mph 1015.6mb 50f 51f
Sat 07/23 11:50pm 7ft 8s 6s 11 16 mph 1015.7mb 50f 53f
10:50pm 9ft 7s 6s 25 29 mph 1015.4mb 50f 54f
9:50pm 9.5ft 8s 6s 27 31 mph 1015.2mb 50f 54f
8:50pm 9.5ft 8s 6s 31 36 mph 1014.5mb 50f 55f
7:50pm 9ft 7s 6s 36 43 mph 1013.7mb 50f 56f
6:50pm 9ft 7s 6s 36 43 mph 1013.8mb 50f 56f
5:50pm 9ft 7s 6s 38 47 mph 1014.5mb 50f 56f
4:50pm 8.5ft 7s 6s 36 45 mph 1015.2mb 50f 56f
3:50pm 7ft 7s 5s 34 43 mph 1015.9mb 50f 56f
2:50pm 7ft 7s 5s 34 38 mph 1016.7mb 51f 56f
1:50pm 6.5ft 7s 5s 27 31 mph 1017.6mb 51f 55f
12:50pm 5.5ft 6s 5s 18 22 mph 1018.8mb 52f 54f
11:50am 5.5ft 7s 5s 18 20 mph 1019.5mb 53f 55f
10:50am 6ft 6s 6s  -  2 mph 1020mb 54f 53f